MGGT/GUA METAR and TAF weather

Enter ICAO airport designator
Station Type Date Time Source
MGGT METAR 2022/01/26 07:00 UTC NOAA

MGGT 260700Z 00000KT 6000 FEW012 16/15 Q1020 A3012 BR


Station Type Date Time Source
MGGT Decoded METAR 2022/01/26 07:00 UTC NOAA

Guatemala Aeropuertola Aurora , Guatemala (MGGT) 14-35N 090-31W 1489M
Jan 26, 2022 - 02:00 AM EST / 2022.01.26 0700 UTC
Wind: Calm:0
Visibility: 3 mile(s):0
Sky conditions: mostly clear
Temperature: 60 F (16 C)
Dew Point: 59 F (15 C)
Relative Humidity: 93%
Pressure (altimeter): 30.12 in. Hg (1019 hPa)
ob: MGGT 260700Z 00000KT 6000 FEW012 16/15 Q1020 A3012 BR
cycle: 7

Station Type Date Time Source
MGGT TAF 2022/01/26 06:18 UTC NOAA

TAF TAF MGGT 260500Z 2606/2706 VRB03KT 8000 SCT016 TX27/2620Z TN14/2612Z
BECMG 2614/2616 36016KT 9999 SCT018
TEMPO 2620/2624 SCT022 SCT080
BECMG 2702/2704 36012KT SCT016

Example: see airport list